sensor_id;sensor_type;location;lat;lon;timestamp;temperature;humidity
10304;DHT22;5197;48.152;8.590;2022-07-04T00:01:05;19.80;1.00
10304;DHT22;5197;48.152;8.590;2022-07-04T00:03:32;19.80;1.00
10304;DHT22;5197;48.152;8.590;2022-07-04T00:05:59;19.80;1.00
10304;DHT22;5197;48.152;8.590;2022-07-04T00:08:26;19.80;1.00
10304;DHT22;5197;48.152;8.590;2022-07-04T00:10:53;19.80;1.00
10304;DHT22;5197;48.152;8.590;2022-07-04T00:13:20;19.80;1.00
10304;DHT22;5197;48.152;8.590;2022-07-04T00:15:47;19.80;1.00
10304;DHT22;5197;48.152;8.590;2022-07-04T00:18:14;19.80;1.00
10304;DHT22;5197;48.152;8.590;2022-07-04T00:20:41;19.80;1.00
10304;DHT22;5197;48.152;8.590;2022-07-04T00:23:08;19.80;1.00
10304;DHT22;5197;48.152;8.590;2022-07-04T00:25:35;19.80;1.00
10304;DHT22;5197;48.152;8.590;2022-07-04T00:28:02;19.80;1.00
10304;DHT22;5197;48.152;8.590;2022-07-04T00:30:29;19.70;1.00
10304;DHT22;5197;48.152;8.590;2022-07-04T00:32:56;19.60;1.70
10304;DHT22;5197;48.152;8.590;2022-07-04T00:35:23;19.50;2.10
10304;DHT22;5197;48.152;8.590;2022-07-04T00:37:50;19.50;2.00
10304;DHT22;5197;48.152;8.590;2022-07-04T00:40:17;19.50;1.80
10304;DHT22;5197;48.152;8.590;2022-07-04T00:42:44;19.50;2.10
10304;DHT22;5197;48.152;8.590;2022-07-04T00:45:11;19.40;1.60
10304;DHT22;5197;48.152;8.590;2022-07-04T00:47:38;19.40;1.80
10304;DHT22;5197;48.152;8.590;2022-07-04T00:50:06;19.40;1.50
10304;DHT22;5197;48.152;8.590;2022-07-04T00:52:33;19.40;1.10
10304;DHT22;5197;48.152;8.590;2022-07-04T00:55:00;19.50;1.00
10304;DHT22;5197;48.152;8.590;2022-07-04T00:57:28;19.50;1.00
10304;DHT22;5197;48.152;8.590;2022-07-04T00:59:55;19.50;1.00
10304;DHT22;5197;48.152;8.590;2022-07-04T01:02:22;19.50;1.30
10304;DHT22;5197;48.152;8.590;2022-07-04T01:04:49;19.50;1.50
10304;DHT22;5197;48.152;8.590;2022-07-04T01:07:17;19.40;1.70
10304;DHT22;5197;48.152;8.590;2022-07-04T01:09:45;19.50;2.00
10304;DHT22;5197;48.152;8.590;2022-07-04T01:12:27;19.60;1.90
10304;DHT22;5197;48.152;8.590;2022-07-04T01:14:55;19.60;1.40
10304;DHT22;5197;48.152;8.590;2022-07-04T01:17:22;19.60;1.30
10304;DHT22;5197;48.152;8.590;2022-07-04T01:19:49;19.60;1.00
10304;DHT22;5197;48.152;8.590;2022-07-04T01:22:16;19.70;1.10
10304;DHT22;5197;48.152;8.590;2022-07-04T01:24:44;19.60;1.30
10304;DHT22;5197;48.152;8.590;2022-07-04T01:27:11;19.60;1.80
10304;DHT22;5197;48.152;8.590;2022-07-04T01:29:38;19.50;1.80
10304;DHT22;5197;48.152;8.590;2022-07-04T01:32:07;19.60;1.90
10304;DHT22;5197;48.152;8.590;2022-07-04T01:34:34;19.50;2.00
10304;DHT22;5197;48.152;8.590;2022-07-04T01:37:09;19.50;2.50
10304;DHT22;5197;48.152;8.590;2022-07-04T01:39:36;19.40;3.10
10304;DHT22;5197;48.152;8.590;2022-07-04T01:42:04;19.30;3.80
10304;DHT22;5197;48.152;8.590;2022-07-04T01:44:32;19.30;3.80
10304;DHT22;5197;48.152;8.590;2022-07-04T01:46:59;19.20;3.70
10304;DHT22;5197;48.152;8.590;2022-07-04T01:49:27;19.20;3.80
10304;DHT22;5197;48.152;8.590;2022-07-04T01:51:54;19.10;3.60
10304;DHT22;5197;48.152;8.590;2022-07-04T01:54:22;19.10;3.70
10304;DHT22;5197;48.152;8.590;2022-07-04T01:56:51;19.10;3.60
10304;DHT22;5197;48.152;8.590;2022-07-04T01:59:18;19.10;3.60
10304;DHT22;5197;48.152;8.590;2022-07-04T02:01:45;19.10;3.70
10304;DHT22;5197;48.152;8.590;2022-07-04T02:04:12;19.20;3.70
10304;DHT22;5197;48.152;8.590;2022-07-04T02:06:40;19.00;3.60
10304;DHT22;5197;48.152;8.590;2022-07-04T02:09:07;19.00;3.60
10304;DHT22;5197;48.152;8.590;2022-07-04T02:11:44;19.00;3.70
10304;DHT22;5197;48.152;8.590;2022-07-04T02:14:31;19.00;3.60
10304;DHT22;5197;48.152;8.590;2022-07-04T02:16:59;19.00;3.60
10304;DHT22;5197;48.152;8.590;2022-07-04T02:19:27;18.90;3.50
10304;DHT22;5197;48.152;8.590;2022-07-04T02:21:54;18.90;3.60
10304;DHT22;5197;48.152;8.590;2022-07-04T02:24:21;18.80;4.40
10304;DHT22;5197;48.152;8.590;2022-07-04T02:26:48;18.70;4.60
10304;DHT22;5197;48.152;8.590;2022-07-04T02:29:16;18.70;5.10
10304;DHT22;5197;48.152;8.590;2022-07-04T02:31:43;18.70;5.20
10304;DHT22;5197;48.152;8.590;2022-07-04T02:34:10;18.70;5.30
10304;DHT22;5197;48.152;8.590;2022-07-04T02:36:37;18.70;5.20
10304;DHT22;5197;48.152;8.590;2022-07-04T02:39:05;18.70;6.00
10304;DHT22;5197;48.152;8.590;2022-07-04T02:41:33;18.70;5.10
10304;DHT22;5197;48.152;8.590;2022-07-04T02:44:00;18.70;5.20
10304;DHT22;5197;48.152;8.590;2022-07-04T02:46:28;18.70;5.40
10304;DHT22;5197;48.152;8.590;2022-07-04T02:48:55;18.60;5.40
10304;DHT22;5197;48.152;8.590;2022-07-04T02:51:22;18.60;5.60
10304;DHT22;5197;48.152;8.590;2022-07-04T02:53:49;18.50;5.80
10304;DHT22;5197;48.152;8.590;2022-07-04T02:56:16;18.50;6.00
10304;DHT22;5197;48.152;8.590;2022-07-04T02:58:43;18.50;5.70
10304;DHT22;5197;48.152;8.590;2022-07-04T03:01:11;18.50;5.80
10304;DHT22;5197;48.152;8.590;2022-07-04T03:03:39;18.50;6.70
10304;DHT22;5197;48.152;8.590;2022-07-04T03:06:10;18.40;5.80
10304;DHT22;5197;48.152;8.590;2022-07-04T03:08:37;18.40;6.30
10304;DHT22;5197;48.152;8.590;2022-07-04T03:11:05;18.40;6.60
10304;DHT22;5197;48.152;8.590;2022-07-04T03:13:32;18.30;6.50
10304;DHT22;5197;48.152;8.590;2022-07-04T03:15:59;18.40;6.60
10304;DHT22;5197;48.152;8.590;2022-07-04T03:18:27;18.40;6.80
10304;DHT22;5197;48.152;8.590;2022-07-04T03:20:54;18.30;6.90
10304;DHT22;5197;48.152;8.590;2022-07-04T03:23:21;18.30;7.10
10304;DHT22;5197;48.152;8.590;2022-07-04T03:25:48;18.30;7.10
10304;DHT22;5197;48.152;8.590;2022-07-04T03:28:15;18.30;7.30
10304;DHT22;5197;48.152;8.590;2022-07-04T03:30:42;18.40;7.50
10304;DHT22;5197;48.152;8.590;2022-07-04T03:33:09;18.40;7.30
10304;DHT22;5197;48.152;8.590;2022-07-04T03:35:36;18.40;7.50
10304;DHT22;5197;48.152;8.590;2022-07-04T03:38:03;18.40;7.80
10304;DHT22;5197;48.152;8.590;2022-07-04T03:40:30;18.40;7.50
10304;DHT22;5197;48.152;8.590;2022-07-04T03:42:58;18.40;7.90
10304;DHT22;5197;48.152;8.590;2022-07-04T03:45:25;18.40;7.80
10304;DHT22;5197;48.152;8.590;2022-07-04T03:47:52;18.50;7.60
10304;DHT22;5197;48.152;8.590;2022-07-04T03:50:19;18.40;7.70
10304;DHT22;5197;48.152;8.590;2022-07-04T03:52:46;18.50;7.80
10304;DHT22;5197;48.152;8.590;2022-07-04T03:55:14;18.50;7.90
10304;DHT22;5197;48.152;8.590;2022-07-04T03:57:41;18.60;8.10
10304;DHT22;5197;48.152;8.590;2022-07-04T04:00:08;18.60;8.00
10304;DHT22;5197;48.152;8.590;2022-07-04T04:02:36;18.60;7.90
10304;DHT22;5197;48.152;8.590;2022-07-04T04:05:04;18.60;8.20
10304;DHT22;5197;48.152;8.590;2022-07-04T04:07:50;18.40;8.30
10304;DHT22;5197;48.152;8.590;2022-07-04T04:10:17;18.40;8.90
10304;DHT22;5197;48.152;8.590;2022-07-04T04:12:45;18.40;9.20
10304;DHT22;5197;48.152;8.590;2022-07-04T04:15:12;18.40;9.40
10304;DHT22;5197;48.152;8.590;2022-07-04T04:17:39;18.30;9.70
10304;DHT22;5197;48.152;8.590;2022-07-04T04:20:06;18.30;9.90
10304;DHT22;5197;48.152;8.590;2022-07-04T04:22:35;18.30;9.80
10304;DHT22;5197;48.152;8.590;2022-07-04T04:25:03;18.30;9.60
10304;DHT22;5197;48.152;8.590;2022-07-04T04:27:30;18.30;9.20
10304;DHT22;5197;48.152;8.590;2022-07-04T04:29:57;18.40;9.00
10304;DHT22;5197;48.152;8.590;2022-07-04T04:32:24;18.40;8.70
10304;DHT22;5197;48.152;8.590;2022-07-04T04:34:51;18.40;8.50
10304;DHT22;5197;48.152;8.590;2022-07-04T04:37:18;18.40;8.60
10304;DHT22;5197;48.152;8.590;2022-07-04T04:39:46;18.40;8.80
10304;DHT22;5197;48.152;8.590;2022-07-04T04:42:13;18.50;9.10
10304;DHT22;5197;48.152;8.590;2022-07-04T04:44:40;18.50;9.50
10304;DHT22;5197;48.152;8.590;2022-07-04T04:47:07;18.50;10.30
10304;DHT22;5197;48.152;8.590;2022-07-04T04:49:34;18.50;10.40
10304;DHT22;5197;48.152;8.590;2022-07-04T04:52:01;18.50;10.80
10304;DHT22;5197;48.152;8.590;2022-07-04T04:54:29;18.50;10.90
10304;DHT22;5197;48.152;8.590;2022-07-04T04:56:56;18.50;11.50
10304;DHT22;5197;48.152;8.590;2022-07-04T04:59:23;18.60;11.60
10304;DHT22;5197;48.152;8.590;2022-07-04T05:01:50;18.60;11.50
10304;DHT22;5197;48.152;8.590;2022-07-04T05:04:17;18.60;10.90
10304;DHT22;5197;48.152;8.590;2022-07-04T05:06:45;18.70;11.00
10304;DHT22;5197;48.152;8.590;2022-07-04T05:09:12;18.70;11.10
10304;DHT22;5197;48.152;8.590;2022-07-04T05:11:40;18.80;11.10
10304;DHT22;5197;48.152;8.590;2022-07-04T05:14:07;18.80;10.70
10304;DHT22;5197;48.152;8.590;2022-07-04T05:16:34;18.80;10.60
10304;DHT22;5197;48.152;8.590;2022-07-04T05:19:01;18.90;10.40
10304;DHT22;5197;48.152;8.590;2022-07-04T05:21:28;19.00;10.30
10304;DHT22;5197;48.152;8.590;2022-07-04T05:23:56;19.00;10.20
10304;DHT22;5197;48.152;8.590;2022-07-04T05:26:23;19.10;9.70
10304;DHT22;5197;48.152;8.590;2022-07-04T05:28:50;19.10;9.40
10304;DHT22;5197;48.152;8.590;2022-07-04T05:31:17;19.10;9.60
10304;DHT22;5197;48.152;8.590;2022-07-04T05:33:44;19.10;9.70
10304;DHT22;5197;48.152;8.590;2022-07-04T05:36:11;19.10;9.70
10304;DHT22;5197;48.152;8.590;2022-07-04T05:38:38;19.10;9.80
10304;DHT22;5197;48.152;8.590;2022-07-04T05:41:05;19.10;9.90
10304;DHT22;5197;48.152;8.590;2022-07-04T05:43:36;19.10;10.50
10304;DHT22;5197;48.152;8.590;2022-07-04T05:46:03;19.00;10.40
10304;DHT22;5197;48.152;8.590;2022-07-04T05:48:30;19.00;10.50
10304;DHT22;5197;48.152;8.590;2022-07-04T05:50:57;19.00;10.80
10304;DHT22;5197;48.152;8.590;2022-07-04T05:53:25;19.00;10.80
10304;DHT22;5197;48.152;8.590;2022-07-04T05:55:52;19.10;10.60
10304;DHT22;5197;48.152;8.590;2022-07-04T05:58:20;19.20;10.50
10304;DHT22;5197;48.152;8.590;2022-07-04T06:00:47;19.20;10.40
10304;DHT22;5197;48.152;8.590;2022-07-04T06:03:15;19.30;10.10
10304;DHT22;5197;48.152;8.590;2022-07-04T06:05:46;19.30;10.10
10304;DHT22;5197;48.152;8.590;2022-07-04T06:08:13;19.30;10.40
10304;DHT22;5197;48.152;8.590;2022-07-04T06:10:40;19.40;10.50
10304;DHT22;5197;48.152;8.590;2022-07-04T06:13:07;19.40;10.50
10304;DHT22;5197;48.152;8.590;2022-07-04T06:15:35;19.40;10.50
10304;DHT22;5197;48.152;8.590;2022-07-04T06:18:02;21.10;11.90
10304;DHT22;5197;48.152;8.590;2022-07-04T06:20:31;19.40;11.00
10304;DHT22;5197;48.152;8.590;2022-07-04T06:22:58;19.50;11.60
10304;DHT22;5197;48.152;8.590;2022-07-04T06:25:25;19.50;12.00
10304;DHT22;5197;48.152;8.590;2022-07-04T06:27:52;19.60;12.20
10304;DHT22;5197;48.152;8.590;2022-07-04T06:30:19;19.60;11.90
10304;DHT22;5197;48.152;8.590;2022-07-04T06:32:49;19.70;11.80
10304;DHT22;5197;48.152;8.590;2022-07-04T06:35:24;19.70;11.80
10304;DHT22;5197;48.152;8.590;2022-07-04T06:38:13;19.80;11.70
10304;DHT22;5197;48.152;8.590;2022-07-04T06:40:40;19.80;11.60
10304;DHT22;5197;48.152;8.590;2022-07-04T06:43:08;19.90;11.90
10304;DHT22;5197;48.152;8.590;2022-07-04T06:45:36;20.00;11.80
10304;DHT22;5197;48.152;8.590;2022-07-04T06:48:04;20.10;11.40
10304;DHT22;5197;48.152;8.590;2022-07-04T06:50:32;20.20;12.10
10304;DHT22;5197;48.152;8.590;2022-07-04T06:53:09;20.20;11.10
10304;DHT22;5197;48.152;8.590;2022-07-04T06:55:41;20.30;10.70
10304;DHT22;5197;48.152;8.590;2022-07-04T06:58:09;20.40;10.20
10304;DHT22;5197;48.152;8.590;2022-07-04T07:00:36;20.50;10.00
10304;DHT22;5197;48.152;8.590;2022-07-04T07:03:04;20.50;9.90
10304;DHT22;5197;48.152;8.590;2022-07-04T07:05:31;20.50;10.20
10304;DHT22;5197;48.152;8.590;2022-07-04T07:08:18;20.50;10.50
10304;DHT22;5197;48.152;8.590;2022-07-04T07:10:45;20.50;10.70
10304;DHT22;5197;48.152;8.590;2022-07-04T07:13:13;20.60;11.00
10304;DHT22;5197;48.152;8.590;2022-07-04T07:15:41;20.60;11.20
10304;DHT22;5197;48.152;8.590;2022-07-04T07:18:08;20.70;11.40
10304;DHT22;5197;48.152;8.590;2022-07-04T07:20:35;20.70;11.20
10304;DHT22;5197;48.152;8.590;2022-07-04T07:23:03;20.70;11.00
10304;DHT22;5197;48.152;8.590;2022-07-04T07:25:30;20.80;11.20
10304;DHT22;5197;48.152;8.590;2022-07-04T07:27:58;20.80;11.40
10304;DHT22;5197;48.152;8.590;2022-07-04T07:30:26;21.00;11.30
10304;DHT22;5197;48.152;8.590;2022-07-04T07:32:56;21.10;11.10
10304;DHT22;5197;48.152;8.590;2022-07-04T07:35:24;21.20;10.70
10304;DHT22;5197;48.152;8.590;2022-07-04T07:37:51;21.30;10.20
10304;DHT22;5197;48.152;8.590;2022-07-04T07:40:18;21.40;10.50
10304;DHT22;5197;48.152;8.590;2022-07-04T07:42:45;21.50;10.00
10304;DHT22;5197;48.152;8.590;2022-07-04T07:45:12;21.50;9.70
10304;DHT22;5197;48.152;8.590;2022-07-04T07:47:39;21.50;9.50
10304;DHT22;5197;48.152;8.590;2022-07-04T07:50:07;21.50;9.70
10304;DHT22;5197;48.152;8.590;2022-07-04T07:52:34;21.50;9.60
10304;DHT22;5197;48.152;8.590;2022-07-04T07:55:01;21.60;10.70
10304;DHT22;5197;48.152;8.590;2022-07-04T07:57:29;21.70;9.40
10304;DHT22;5197;48.152;8.590;2022-07-04T07:59:57;21.90;8.60
10304;DHT22;5197;48.152;8.590;2022-07-04T08:02:24;22.00;7.30
10304;DHT22;5197;48.152;8.590;2022-07-04T08:05:11;22.20;6.40
10304;DHT22;5197;48.152;8.590;2022-07-04T08:07:38;22.30;6.00
10304;DHT22;5197;48.152;8.590;2022-07-04T08:10:06;22.40;6.00
10304;DHT22;5197;48.152;8.590;2022-07-04T08:12:34;22.00;7.60
10304;DHT22;5197;48.152;8.590;2022-07-04T08:15:02;21.80;8.70
10304;DHT22;5197;48.152;8.590;2022-07-04T08:17:34;21.80;9.00
10304;DHT22;5197;48.152;8.590;2022-07-04T08:20:06;21.90;8.30
10304;DHT22;5197;48.152;8.590;2022-07-04T08:22:34;22.00;6.60
10304;DHT22;5197;48.152;8.590;2022-07-04T08:25:02;22.00;6.30
10304;DHT22;5197;48.152;8.590;2022-07-04T08:27:30;22.10;6.70
10304;DHT22;5197;48.152;8.590;2022-07-04T08:30:00;22.30;5.80
10304;DHT22;5197;48.152;8.590;2022-07-04T08:32:28;22.70;6.10
10304;DHT22;5197;48.152;8.590;2022-07-04T08:34:55;22.60;5.40
10304;DHT22;5197;48.152;8.590;2022-07-04T08:37:25;22.40;3.90
10304;DHT22;5197;48.152;8.590;2022-07-04T08:39:53;22.50;5.90
10304;DHT22;5197;48.152;8.590;2022-07-04T08:42:22;22.80;6.10
10304;DHT22;5197;48.152;8.590;2022-07-04T08:44:53;22.80;1.50
10304;DHT22;5197;48.152;8.590;2022-07-04T08:47:29;22.70;1.90
10304;DHT22;5197;48.152;8.590;2022-07-04T08:50:20;22.80;1.60
10304;DHT22;5197;48.152;8.590;2022-07-04T08:53:06;23.00;1.00
10304;DHT22;5197;48.152;8.590;2022-07-04T08:55:34;23.20;1.00
10304;DHT22;5197;48.152;8.590;2022-07-04T08:58:21;23.40;1.00
10304;DHT22;5197;48.152;8.590;2022-07-04T09:03:29;23.30;1.00
10304;DHT22;5197;48.152;8.590;2022-07-04T09:05:57;23.10;1.00
10304;DHT22;5197;48.152;8.590;2022-07-04T09:08:26;22.90;1.00
10304;DHT22;5197;48.152;8.590;2022-07-04T09:10:54;22.80;1.00
10304;DHT22;5197;48.152;8.590;2022-07-04T09:13:21;22.80;1.00
10304;DHT22;5197;48.152;8.590;2022-07-04T09:15:49;22.80;1.00
10304;DHT22;5197;48.152;8.590;2022-07-04T09:20:55;23.00;1.00
10304;DHT22;5197;48.152;8.590;2022-07-04T09:23:28;23.20;1.00
10304;DHT22;5197;48.152;8.590;2022-07-04T09:28:43;23.80;1.00
10304;DHT22;5197;48.152;8.590;2022-07-04T09:31:25;23.90;1.00
10304;DHT22;5197;48.152;8.590;2022-07-04T09:33:53;23.50;1.00
10304;DHT22;5197;48.152;8.590;2022-07-04T09:36:30;23.10;1.00
10304;DHT22;5197;48.152;8.590;2022-07-04T09:39:09;22.90;1.00
10304;DHT22;5197;48.152;8.590;2022-07-04T09:44:28;22.80;1.20
10304;DHT22;5197;48.152;8.590;2022-07-04T09:46:56;22.90;1.00
10304;DHT22;5197;48.152;8.590;2022-07-04T09:49:23;23.00;1.00
10304;DHT22;5197;48.152;8.590;2022-07-04T09:51:52;23.10;1.00
10304;DHT22;5197;48.152;8.590;2022-07-04T09:54:27;23.00;1.00
10304;DHT22;5197;48.152;8.590;2022-07-04T09:57:02;22.80;1.00
10304;DHT22;5197;48.152;8.590;2022-07-04T09:59:30;22.60;1.00
10304;DHT22;5197;48.152;8.590;2022-07-04T10:02:08;22.60;1.00
10304;DHT22;5197;48.152;8.590;2022-07-04T10:04:49;22.40;1.00
10304;DHT22;5197;48.152;8.590;2022-07-04T10:07:33;22.40;5.30
10304;DHT22;5197;48.152;8.590;2022-07-04T10:12:55;22.70;2.10
10304;DHT22;5197;48.152;8.590;2022-07-04T10:15:22;22.80;1.00
10304;DHT22;5197;48.152;8.590;2022-07-04T10:17:50;22.90;1.00
10304;DHT22;5197;48.152;8.590;2022-07-04T10:20:17;23.10;1.00
10304;DHT22;5197;48.152;8.590;2022-07-04T10:22:45;23.20;1.00
10304;DHT22;5197;48.152;8.590;2022-07-04T10:25:12;23.40;1.00
10304;DHT22;5197;48.152;8.590;2022-07-04T10:27:39;23.80;1.00
10304;DHT22;5197;48.152;8.590;2022-07-04T10:30:11;24.10;1.00
10304;DHT22;5197;48.152;8.590;2022-07-04T10:32:39;24.20;1.00
10304;DHT22;5197;48.152;8.590;2022-07-04T10:35:06;24.30;1.00
10304;DHT22;5197;48.152;8.590;2022-07-04T10:38:05;24.00;1.00
10304;DHT22;5197;48.152;8.590;2022-07-04T10:40:46;23.60;1.00
10304;DHT22;5197;48.152;8.590;2022-07-04T10:51:48;23.30;1.00
10304;DHT22;5197;48.152;8.590;2022-07-04T10:59:30;23.90;1.00
10304;DHT22;5197;48.152;8.590;2022-07-04T11:20:31;24.00;1.00
10304;DHT22;5197;48.152;8.590;2022-07-04T11:23:09;23.90;1.00
10304;DHT22;5197;48.152;8.590;2022-07-04T11:25:40;23.70;1.00
10304;DHT22;5197;48.152;8.590;2022-07-04T11:28:25;23.60;1.00
10304;DHT22;5197;48.152;8.590;2022-07-04T11:31:11;23.80;1.00
10304;DHT22;5197;48.152;8.590;2022-07-04T11:33:39;24.00;1.00
10304;DHT22;5197;48.152;8.590;2022-07-04T11:36:10;24.00;1.00
10304;DHT22;5197;48.152;8.590;2022-07-04T11:41:10;24.10;1.00
10304;DHT22;5197;48.152;8.590;2022-07-04T11:43:56;24.10;1.00
10304;DHT22;5197;48.152;8.590;2022-07-04T11:46:42;24.00;1.00
10304;DHT22;5197;48.152;8.590;2022-07-04T11:49:12;23.90;1.00
10304;DHT22;5197;48.152;8.590;2022-07-04T11:51:44;23.90;1.00
10304;DHT22;5197;48.152;8.590;2022-07-04T11:54:13;23.70;1.00
10304;DHT22;5197;48.152;8.590;2022-07-04T11:57:18;23.50;1.00
10304;DHT22;5197;48.152;8.590;2022-07-04T12:02:23;23.70;1.00
10304;DHT22;5197;48.152;8.590;2022-07-04T12:04:51;23.70;1.00
10304;DHT22;5197;48.152;8.590;2022-07-04T12:07:20;23.50;1.00
10304;DHT22;5197;48.152;8.590;2022-07-04T12:09:48;23.40;1.00
10304;DHT22;5197;48.152;8.590;2022-07-04T12:12:15;23.40;1.00
10304;DHT22;5197;48.152;8.590;2022-07-04T12:17:37;24.00;1.00
10304;DHT22;5197;48.152;8.590;2022-07-04T12:20:14;24.50;1.00
10304;DHT22;5197;48.152;8.590;2022-07-04T12:22:55;24.90;1.00
10304;DHT22;5197;48.152;8.590;2022-07-04T12:25:31;24.80;1.00
10304;DHT22;5197;48.152;8.590;2022-07-04T12:28:12;24.50;1.00
10304;DHT22;5197;48.152;8.590;2022-07-04T12:33:24;24.60;1.00
10304;DHT22;5197;48.152;8.590;2022-07-04T12:36:01;24.70;1.00
10304;DHT22;5197;48.152;8.590;2022-07-04T12:38:33;24.70;1.00
10304;DHT22;5197;48.152;8.590;2022-07-04T12:41:11;24.70;1.00
10304;DHT22;5197;48.152;8.590;2022-07-04T12:46:12;24.50;1.00
10304;DHT22;5197;48.152;8.590;2022-07-04T12:48:41;24.40;1.00
10304;DHT22;5197;48.152;8.590;2022-07-04T12:51:15;24.40;1.00
10304;DHT22;5197;48.152;8.590;2022-07-04T12:53:47;24.40;1.00
10304;DHT22;5197;48.152;8.590;2022-07-04T12:56:36;24.70;1.00
10304;DHT22;5197;48.152;8.590;2022-07-04T12:59:06;25.10;1.00
10304;DHT22;5197;48.152;8.590;2022-07-04T13:01:40;25.20;1.00
10304;DHT22;5197;48.152;8.590;2022-07-04T13:04:08;25.10;1.00
10304;DHT22;5197;48.152;8.590;2022-07-04T13:06:36;25.10;1.00
10304;DHT22;5197;48.152;8.590;2022-07-04T13:09:04;25.20;1.00
10304;DHT22;5197;48.152;8.590;2022-07-04T13:11:31;25.20;1.00
10304;DHT22;5197;48.152;8.590;2022-07-04T13:14:16;25.20;1.00
10304;DHT22;5197;48.152;8.590;2022-07-04T13:16:43;25.20;1.00
10304;DHT22;5197;48.152;8.590;2022-07-04T13:19:10;25.20;1.00
10304;DHT22;5197;48.152;8.590;2022-07-04T13:21:38;25.30;1.00
10304;DHT22;5197;48.152;8.590;2022-07-04T13:24:05;25.20;1.00
10304;DHT22;5197;48.152;8.590;2022-07-04T13:26:32;25.20;1.00
10304;DHT22;5197;48.152;8.590;2022-07-04T13:29:00;25.50;1.00
10304;DHT22;5197;48.152;8.590;2022-07-04T13:31:35;25.50;1.00
10304;DHT22;5197;48.152;8.590;2022-07-04T13:34:03;25.70;1.00
10304;DHT22;5197;48.152;8.590;2022-07-04T13:36:30;26.00;1.00
10304;DHT22;5197;48.152;8.590;2022-07-04T13:38:59;26.10;1.00
10304;DHT22;5197;48.152;8.590;2022-07-04T13:41:33;26.10;1.00
10304;DHT22;5197;48.152;8.590;2022-07-04T13:44:03;26.10;1.00
10304;DHT22;5197;48.152;8.590;2022-07-04T13:46:31;26.00;1.00
10304;DHT22;5197;48.152;8.590;2022-07-04T13:49:04;25.90;1.00
10304;DHT22;5197;48.152;8.590;2022-07-04T13:51:42;25.80;1.00
10304;DHT22;5197;48.152;8.590;2022-07-04T13:54:11;25.40;1.00
10304;DHT22;5197;48.152;8.590;2022-07-04T13:56:39;25.00;1.00
10304;DHT22;5197;48.152;8.590;2022-07-04T13:59:08;24.90;1.00
10304;DHT22;5197;48.152;8.590;2022-07-04T14:01:36;24.90;1.00
10304;DHT22;5197;48.152;8.590;2022-07-04T14:04:05;24.90;1.00
10304;DHT22;5197;48.152;8.590;2022-07-04T14:06:32;24.80;1.00
10304;DHT22;5197;48.152;8.590;2022-07-04T14:09:00;24.70;1.00
10304;DHT22;5197;48.152;8.590;2022-07-04T14:11:27;24.60;1.00
10304;DHT22;5197;48.152;8.590;2022-07-04T14:13:54;24.50;1.00
10304;DHT22;5197;48.152;8.590;2022-07-04T14:16:23;24.40;1.00
10304;DHT22;5197;48.152;8.590;2022-07-04T14:18:50;24.40;1.00
10304;DHT22;5197;48.152;8.590;2022-07-04T14:21:17;24.40;1.00
10304;DHT22;5197;48.152;8.590;2022-07-04T14:23:44;24.40;1.00
10304;DHT22;5197;48.152;8.590;2022-07-04T14:26:16;24.40;1.00
10304;DHT22;5197;48.152;8.590;2022-07-04T14:28:43;24.40;1.00
10304;DHT22;5197;48.152;8.590;2022-07-04T14:31:13;24.40;1.00
10304;DHT22;5197;48.152;8.590;2022-07-04T14:33:40;24.30;1.00
10304;DHT22;5197;48.152;8.590;2022-07-04T14:36:08;24.20;1.00
10304;DHT22;5197;48.152;8.590;2022-07-04T14:38:38;24.20;1.00
10304;DHT22;5197;48.152;8.590;2022-07-04T14:41:05;24.30;1.00
10304;DHT22;5197;48.152;8.590;2022-07-04T14:43:45;24.30;1.00
10304;DHT22;5197;48.152;8.590;2022-07-04T14:46:12;24.30;1.00
10304;DHT22;5197;48.152;8.590;2022-07-04T14:48:39;24.20;1.00
10304;DHT22;5197;48.152;8.590;2022-07-04T14:51:06;24.30;1.00
10304;DHT22;5197;48.152;8.590;2022-07-04T14:53:34;24.30;1.00
10304;DHT22;5197;48.152;8.590;2022-07-04T14:56:01;24.30;1.00
10304;DHT22;5197;48.152;8.590;2022-07-04T14:58:28;24.20;1.00
10304;DHT22;5197;48.152;8.590;2022-07-04T15:00:56;24.10;1.00
10304;DHT22;5197;48.152;8.590;2022-07-04T15:03:23;24.00;1.00
10304;DHT22;5197;48.152;8.590;2022-07-04T15:05:50;24.00;1.00
10304;DHT22;5197;48.152;8.590;2022-07-04T15:08:18;24.00;1.00
10304;DHT22;5197;48.152;8.590;2022-07-04T15:10:45;24.00;1.00
10304;DHT22;5197;48.152;8.590;2022-07-04T15:13:27;24.00;1.00
10304;DHT22;5197;48.152;8.590;2022-07-04T15:15:57;24.10;1.00
10304;DHT22;5197;48.152;8.590;2022-07-04T15:18:44;24.10;1.00
10304;DHT22;5197;48.152;8.590;2022-07-04T15:21:11;24.00;1.00
10304;DHT22;5197;48.152;8.590;2022-07-04T15:23:57;24.00;1.00
10304;DHT22;5197;48.152;8.590;2022-07-04T15:29:10;24.10;1.00
10304;DHT22;5197;48.152;8.590;2022-07-04T15:31:40;24.10;1.00
10304;DHT22;5197;48.152;8.590;2022-07-04T15:34:07;24.10;1.00
10304;DHT22;5197;48.152;8.590;2022-07-04T15:36:34;24.10;1.00
10304;DHT22;5197;48.152;8.590;2022-07-04T15:39:28;23.90;1.00
10304;DHT22;5197;48.152;8.590;2022-07-04T15:41:56;23.70;1.00
10304;DHT22;5197;48.152;8.590;2022-07-04T15:44:23;23.60;1.00
10304;DHT22;5197;48.152;8.590;2022-07-04T15:46:51;23.50;1.00
10304;DHT22;5197;48.152;8.590;2022-07-04T15:49:37;23.40;1.00
10304;DHT22;5197;48.152;8.590;2022-07-04T15:52:05;23.30;1.00
10304;DHT22;5197;48.152;8.590;2022-07-04T15:54:32;23.20;1.00
10304;DHT22;5197;48.152;8.590;2022-07-04T15:56:59;23.20;1.00
10304;DHT22;5197;48.152;8.590;2022-07-04T15:59:27;23.10;1.00
10304;DHT22;5197;48.152;8.590;2022-07-04T16:01:54;23.10;1.00
10304;DHT22;5197;48.152;8.590;2022-07-04T16:04:22;23.00;1.00
10304;DHT22;5197;48.152;8.590;2022-07-04T16:06:49;22.80;1.00
10304;DHT22;5197;48.152;8.590;2022-07-04T16:09:16;22.80;1.00
10304;DHT22;5197;48.152;8.590;2022-07-04T16:11:43;22.70;1.00
10304;DHT22;5197;48.152;8.590;2022-07-04T16:14:11;22.60;1.00
10304;DHT22;5197;48.152;8.590;2022-07-04T16:16:39;22.60;1.00
10304;DHT22;5197;48.152;8.590;2022-07-04T16:19:06;22.50;1.00
10304;DHT22;5197;48.152;8.590;2022-07-04T16:21:38;22.50;1.00
10304;DHT22;5197;48.152;8.590;2022-07-04T16:24:06;22.40;1.00
10304;DHT22;5197;48.152;8.590;2022-07-04T16:26:33;22.30;1.00
10304;DHT22;5197;48.152;8.590;2022-07-04T16:29:00;22.20;1.00
10304;DHT22;5197;48.152;8.590;2022-07-04T16:31:27;22.10;1.00
10304;DHT22;5197;48.152;8.590;2022-07-04T16:33:54;22.00;1.00
10304;DHT22;5197;48.152;8.590;2022-07-04T16:36:23;22.10;1.00
10304;DHT22;5197;48.152;8.590;2022-07-04T16:38:50;22.10;1.00
10304;DHT22;5197;48.152;8.590;2022-07-04T16:41:17;22.20;1.00
10304;DHT22;5197;48.152;8.590;2022-07-04T16:43:44;22.20;1.00
10304;DHT22;5197;48.152;8.590;2022-07-04T16:46:11;22.20;1.00
10304;DHT22;5197;48.152;8.590;2022-07-04T16:48:38;22.30;1.00
10304;DHT22;5197;48.152;8.590;2022-07-04T16:51:09;22.30;1.00
10304;DHT22;5197;48.152;8.590;2022-07-04T16:53:37;22.30;1.00
10304;DHT22;5197;48.152;8.590;2022-07-04T16:56:04;22.30;1.00
10304;DHT22;5197;48.152;8.590;2022-07-04T16:58:31;22.20;1.00
10304;DHT22;5197;48.152;8.590;2022-07-04T17:00:59;22.10;1.00
10304;DHT22;5197;48.152;8.590;2022-07-04T17:03:26;22.00;1.00
10304;DHT22;5197;48.152;8.590;2022-07-04T17:05:53;22.00;1.00
10304;DHT22;5197;48.152;8.590;2022-07-04T17:08:20;22.00;1.00
10304;DHT22;5197;48.152;8.590;2022-07-04T17:10:47;22.00;1.00
10304;DHT22;5197;48.152;8.590;2022-07-04T17:13:14;21.90;1.00
10304;DHT22;5197;48.152;8.590;2022-07-04T17:15:42;21.80;1.00